»·PEaware :: N9401L KSBA-KBFL

N9401L :: KSBA-KBFL

FLIGHT INFORMATION

Flight Status: Arrived
Operator: Privately registered:
United States
More flights under this callsign
Pilot: Juan D. (11620)
Aircraft: Unknown
(P28U)
More flights by this aircraft type
Origin: KSBA Santa Barbara Mun
United States
Destination: KBFL Meadows
United States
More flights between these airports :: More routes between these airports
Route: +EHF
File this flight plan on PilotEdge
Remarks:
Altitude:
(Current/Filed)
9,000ft
Speed:
(Current/Filed)
140kts
Departed: 18-Jan-20 03:34 PM
Arrived: 18-Jan-20 04:26 PM
Distance/Time
Traveled:
72nm/0:52
Distance/Time
To Go:
Arrived

Flight Plot

Page will automatically refresh every two minutes.

Flight plan parsing failed; only flown route is shown


Map Options




Map Legend


Flown Route
Filed Route
Departure Airport
Arrival Airport
Navaid (VOR, NDB)
Fix

Horizontal Profiles

Position Reports

Time Latitude Longitude Heading Altitude Ground
Speed
18-Jan-20 15:19 34.432577 -119.835056 71 16ft 0kts
18-Jan-20 15:20 34.432577 -119.835056 71 16ft 0kts
18-Jan-20 15:21 34.432577 -119.835056 71 16ft 0kts
18-Jan-20 15:22 34.432577 -119.835056 71 16ft 0kts
18-Jan-20 15:23 34.432577 -119.835056 71 16ft 0kts
18-Jan-20 15:24 34.432577 -119.835056 71 16ft 0kts
18-Jan-20 15:25 34.432577 -119.835056 71 16ft 0kts
18-Jan-20 15:26 34.432577 -119.835056 71 16ft 0kts
18-Jan-20 15:27 34.432577 -119.835056 71 16ft 0kts
18-Jan-20 15:28 34.432577 -119.835056 71 16ft 0kts
18-Jan-20 15:29 34.432577 -119.835056 71 16ft 0kts
18-Jan-20 15:30 34.431142 -119.838415 250 16ft 18kts
18-Jan-20 15:31 34.430713 -119.839729 247 16ft 0kts
18-Jan-20 15:32 34.430571 -119.840089 230 16ft 12kts
18-Jan-20 15:33 34.411465 -119.833832 162 795ft 88kts
18-Jan-20 15:34 34.386399 -119.824710 162 2183ft 98kts
18-Jan-20 15:35 34.360382 -119.815277 162 3369ft 116kts
18-Jan-20 15:36 34.322306 -119.801580 163 2941ft 145kts
18-Jan-20 15:37 34.287007 -119.784471 153 3400ft 124kts
18-Jan-20 15:38 34.255647 -119.765670 153 4111ft 127kts
18-Jan-20 15:39 34.224120 -119.746813 153 4866ft 127kts
18-Jan-20 15:40 34.201648 -119.722924 67 5929ft 106kts
18-Jan-20 15:41 34.225710 -119.710011 13 7319ft 97kts
18-Jan-20 15:42 34.252155 -119.700842 13 8592ft 101kts
18-Jan-20 15:43 34.279039 -119.691351 13 9941ft 102kts
18-Jan-20 15:44 34.307181 -119.681302 14 11036ft 129kts
18-Jan-20 15:45 34.345782 -119.662671 19 11017ft 157kts
18-Jan-20 15:46 34.385980 -119.643249 20 11017ft 158kts
18-Jan-20 15:47 34.426749 -119.623255 20 11017ft 158kts
18-Jan-20 15:48 34.467575 -119.603168 20 11017ft 159kts
18-Jan-20 15:49 34.508785 -119.582865 20 11017ft 160kts
18-Jan-20 15:50 34.550131 -119.562471 20 11017ft 160kts
18-Jan-20 15:51 34.591598 -119.541997 20 11017ft 160kts
18-Jan-20 15:52 34.632921 -119.521572 20 11017ft 160kts
18-Jan-20 15:53 34.674018 -119.501235 20 11017ft 160kts
18-Jan-20 15:54 34.715296 -119.480787 20 11016ft 160kts
18-Jan-20 15:55 34.756466 -119.460372 20 11021ft 160kts
18-Jan-20 15:56 34.797848 -119.439830 20 11033ft 160kts
18-Jan-20 15:57 34.839129 -119.419314 20 11050ft 160kts
18-Jan-20 15:58 34.880157 -119.398903 20 11074ft 160kts
18-Jan-20 15:59 34.921449 -119.378329 20 11097ft 160kts
18-Jan-20 16:00 34.962185 -119.358026 19 11116ft 161kts
18-Jan-20 16:01 35.000525 -119.338931 20 11127ft 162kts
18-Jan-20 16:02 35.038337 -119.320484 20 11135ft 163kts
18-Jan-20 16:03 35.076334 -119.301708 19 11136ft 164kts
18-Jan-20 16:04 35.107420 -119.270002 41 10918ft 162kts
18-Jan-20 16:05 35.137180 -119.236340 42 10249ft 164kts
18-Jan-20 16:06 35.158451 -119.195211 62 9699ft 163kts
18-Jan-20 16:07 35.176447 -119.153223 62 9112ft 158kts
18-Jan-20 16:08 35.189495 -119.110640 73 8305ft 156kts
18-Jan-20 16:09 35.199902 -119.068669 73 7544ft 155kts
18-Jan-20 16:10 35.209829 -119.028119 73 6829ft 153kts
18-Jan-20 16:11 35.219644 -118.987346 73 6118ft 152kts
18-Jan-20 16:12 35.229170 -118.946985 73 5437ft 151kts
18-Jan-20 16:13 35.238499 -118.906101 73 5002ft 137kts
18-Jan-20 16:14 35.247102 -118.866724 73 5008ft 133kts
18-Jan-20 16:15 35.265773 -118.834636 349 4642ft 139kts
18-Jan-20 16:16 35.291683 -118.861404 312 3843ft 140kts
18-Jan-20 16:17 35.313728 -118.889077 312 3148ft 131kts
18-Jan-20 16:18 35.326762 -118.922020 292 2466ft 128kts
18-Jan-20 16:20 35.348121 -118.946378 327 1520ft 144kts
18-Jan-20 16:21 35.366645 -118.968684 310 1673ft 108kts
18-Jan-20 16:22 35.382485 -118.989350 311 1632ft 117kts
18-Jan-20 16:23 35.399989 -119.015021 310 1525ft 117kts
18-Jan-20 16:24 35.418365 -119.037325 311 810ft 67kts
18-Jan-20 16:25 35.429875 -119.051528 311 610ft 63kts
18-Jan-20 16:26 35.436333 -119.057540 67 509ft 0kts

Navigation Log

Ident Type
Flight plan parsing failed, navigation log unavailable